Meteo Giornale » Osservazioni meteo Stati Uniti (USA) » Bloomington Monroe

ore: 19:53 - Osservazioni Meteo Bloomington Monroe
Lat. 39° 8' N Lon. 86° 37' W Alt. 257 metri s.l.m.

sereno

29 °C

Sereno

Temp. 24 Ore

21 °C

32 °C

Sud

7.4 Km/h

Dew point 23 °C

Umidità 70 %

Visibilità  10 Km

Il sole sorge alle ore 07:14

Il sole tramonta alle ore 20:18

Data e Ora Cielo e Fenomeni T °C DP °C Um. % Pres. hPa Vis. km Vento km/h
Oggi h: 19:53 sereno Sereno 29 23 70 1017 10 S 7.4
Oggi h: 18:53 sereno Sereno 31 23 62 1017 13 S 13
Oggi h: 17:53 poco_nuvoloso Poco Nuvoloso 32 22 55 1017 13 S 16.7
Oggi h: 16:53 poco_nuvoloso Poco Nuvoloso 32 23 59 1017 14 S 14.8
Oggi h: 15:53 nuvoloso Nuvoloso 32 22 55 1018 10 S/SO 18.5
Oggi h: 14:53 sereno Sereno 32 22 55 1018 10 N 9.3
Oggi h: 13:53 nuvoloso Nuvoloso 32 22 55 1019 10 SO 18.5
Oggi h: 12:53 sereno Sereno 31 23 62 1019 10 O/SO 14.8
Oggi h: 11:53 sereno Sereno 30 23 66 1019 10 SO 16.7
Oggi h: 10:53 sereno Sereno 29 22 66 1020 10 SO 16.7
Oggi h: 09:53 sereno Sereno 27 22 74 1019 10 S/SO 14.8
Oggi h: 08:53 sereno Sereno 24 21 83 1019 10 N 5.5
Oggi h: 07:53 sereno Sereno 21 21 100 1018 14 N 0
Oggi h: 06:53 sereno Sereno 21 21 100 1018 10 N 0
Oggi h: 05:53 sereno Sereno 22 21 94 1018 10 N 0
Oggi h: 04:53 sereno Sereno 24 20 78 1018 10 N 0
Oggi h: 03:53 poco_nuvoloso Poco Nuvoloso 23 20 83 1017 10 S/SO 9.3
Oggi h: 02:53 sereno Sereno 22 21 94 1018 10 N 0
Oggi h: 01:53 sereno Sereno 22 21 94 1018 10 N 0
Oggi h: 00:53 sereno Sereno 21 21 100 1018 10 N 0
Ieri h: 23:53 sereno Sereno 21 21 100 1018 10 N 0
Ieri h: 22:53 sereno Sereno 21 21 100 1018 10 N 0
Ieri h: 21:53 sereno Sereno 21 21 100 1018 10 N 0
Ieri h: 20:53 sereno Sereno 23 21 88 1017 10 N 0